Time;durP1;ratioP1;P1;durP2;ratioP2;P2;SDS_P1;SDS_P2;PMS_P1;PMS_P2;Temp;Humidity;BMP_temperature;BMP_pressure;BME280_temperature;BME280_humidity;BME280_pressure;Samples;Min_cycle;Max_cycle;Signal;HPM_P1;HPM_P2
2022/08/08 00:01:39;;;;;;;13.32;8.40;;;;;;;25.80;100.00;101052.81;5094539;28;20031;-74
2022/08/08 00:04:40;;;;;;;10.80;7.88;;;;;;;25.86;100.00;101060.38;5093802;28;20066;-74
2022/08/08 00:07:50;;;;;;;12.98;7.95;;;;;;;25.83;100.00;101057.91;5094249;28;20024;-74
2022/08/08 00:10:59;;;;;;;17.67;8.95;;;;;;;25.91;100.00;101058.19;5093408;28;20448;-74
2022/08/08 00:14:12;;;;;;;12.18;7.93;;;;;;;26.11;100.00;101063.81;5093398;28;20093;-74
2022/08/08 00:17:05;;;;;;;9.45;7.55;;;;;;;26.06;100.00;101063.31;5092694;28;20448;-74
2022/08/08 00:20:00;;;;;;;11.95;7.82;;;;;;;25.74;100.00;101072.03;5094423;28;20032;-74
2022/08/08 00:22:53;;;;;;;9.20;7.72;;;;;;;25.73;100.00;101073.03;5093718;28;20046;-74
2022/08/08 00:25:46;;;;;;;12.02;7.82;;;;;;;25.55;100.00;101075.22;5093947;28;20114;-74
2022/08/08 00:28:45;;;;;;;10.30;7.45;;;;;;;25.23;100.00;101070.47;5093711;28;20024;-73
2022/08/08 00:31:37;;;;;;;10.32;7.53;;;;;;;25.16;100.00;101074.56;5094276;28;20020;-73
2022/08/08 00:35:17;;;;;;;14.48;7.80;;;;;;;25.21;100.00;101083.13;5092759;28;20035;-74
2022/08/08 00:38:25;;;;;;;12.00;7.30;;;;;;;24.98;100.00;101086.59;5094164;28;20071;-74
2022/08/08 00:41:14;;;;;;;10.55;7.22;;;;;;;25.38;100.00;101082.78;5093169;28;20039;-73
2022/08/08 00:44:21;;;;;;;14.73;7.85;;;;;;;25.05;100.00;101085.19;5093231;28;20092;-73
2022/08/08 00:47:07;;;;;;;11.52;6.90;;;;;;;24.99;100.00;101082.97;5094109;28;20019;-74
2022/08/08 00:50:34;;;;;;;16.80;7.28;;;;;;;25.31;100.00;101081.56;5093903;28;20099;-74
2022/08/08 00:53:45;;;;;;;10.63;6.78;;;;;;;24.99;100.00;101083.81;5092855;28;20035;-74
2022/08/08 00:57:01;;;;;;;10.88;6.97;;;;;;;25.03;100.00;101087.16;5093007;28;20380;-75
2022/08/08 01:00:33;;;;;;;12.65;7.40;;;;;;;25.29;100.00;101094.19;5092851;28;20028;-74
2022/08/08 01:03:51;;;;;;;10.88;7.28;;;;;;;25.08;100.00;101088.50;5061876;28;20043;-73
2022/08/08 01:06:49;;;;;;;13.05;7.18;;;;;;;24.94;100.00;101088.66;5093662;28;20042;-74
2022/08/08 01:10:03;;;;;;;14.13;7.20;;;;;;;24.71;100.00;101086.72;5094480;28;20380;-74
2022/08/08 01:12:58;;;;;;;14.55;7.63;;;;;;;24.37;100.00;101092.66;5096885;28;20028;-75
2022/08/08 01:15:59;;;;;;;16.08;7.95;;;;;;;24.48;100.00;101083.91;5096212;28;20344;-74
2022/08/08 01:19:12;;;;;;;12.88;7.72;;;;;;;24.63;100.00;101091.75;5097514;28;20040;-74
2022/08/08 01:22:18;;;;;;;13.82;7.50;;;;;;;24.48;100.00;101092.81;5096476;28;20089;-73
2022/08/08 01:25:32;;;;;;;11.80;6.95;;;;;;;24.52;100.00;101082.72;5096203;28;20422;-73
2022/08/08 01:28:31;;;;;;;16.15;7.55;;;;;;;24.33;100.00;101092.97;5096062;28;20032;-73
2022/08/08 01:31:41;;;;;;;18.10;7.93;;;;;;;24.16;100.00;101091.47;5096929;28;20020;-73
2022/08/08 01:35:05;;;;;;;14.13;7.35;;;;;;;23.92;100.00;101084.19;5096541;28;20136;-74
2022/08/08 01:38:09;;;;;;;9.50;7.40;;;;;;;24.33;100.00;101084.94;5097339;28;20035;-74
2022/08/08 01:41:23;;;;;;;12.45;7.35;;;;;;;24.09;100.00;101081.25;5096594;28;20028;-73
2022/08/08 01:44:20;;;;;;;12.63;7.65;;;;;;;23.62;100.00;101084.38;5096694;28;20024;-74
2022/08/08 01:47:34;;;;;;;11.50;7.55;;;;;;;23.51;100.00;101084.22;5095634;28;20428;-74
2022/08/08 01:50:20;;;;;;;11.45;7.90;;;;;;;23.64;100.00;101093.16;5096885;28;20451;-74
2022/08/08 01:53:14;;;;;;;14.10;7.93;;;;;;;23.77;100.00;101082.50;5096077;28;20463;-74
2022/08/08 01:56:29;;;;;;;16.55;7.78;;;;;;;23.58;100.00;101095.38;5096784;28;20034;-74
2022/08/08 01:59:42;;;;;;;12.30;8.10;;;;;;;23.74;100.00;101094.25;5095355;28;20028;-74
2022/08/08 02:02:35;;;;;;;14.70;7.85;;;;;;;23.61;100.00;101100.50;5095704;28;20039;-74
2022/08/08 02:05:44;;;;;;;14.30;8.23;;;;;;;23.32;100.00;101091.72;5095486;28;20035;-74
2022/08/08 02:08:58;;;;;;;18.40;8.40;;;;;;;23.60;100.00;101090.78;5095935;28;20039;-74
2022/08/08 02:11:47;;;;;;;12.23;8.43;;;;;;;23.51;100.00;101102.94;5083897;28;20111;-73
2022/08/08 02:14:41;;;;;;;16.15;9.27;;;;;;;23.18;100.00;101100.56;5095698;28;20445;-74
2022/08/08 02:17:43;;;;;;;13.68;9.35;;;;;;;23.14;100.00;101107.06;5095806;28;20019;-73
2022/08/08 02:20:38;;;;;;;14.43;8.88;;;;;;;23.33;100.00;101109.47;5096064;28;20410;-73
2022/08/08 02:23:36;;;;;;;17.40;9.23;;;;;;;23.34;100.00;101121.88;5094901;28;20039;-74
2022/08/08 02:27:02;;;;;;;15.63;9.75;;;;;;;23.42;100.00;101117.75;5095306;28;20039;-74
2022/08/08 02:30:06;;;;;;;13.63;8.73;;;;;;;23.21;100.00;101120.94;5068421;28;20070;-74
2022/08/08 02:33:01;;;;;;;15.55;8.15;;;;;;;22.91;100.00;101120.16;5095706;28;20364;-74
2022/08/08 02:36:28;;;;;;;13.80;9.52;;;;;;;23.30;100.00;101129.25;5095510;28;20125;-74
2022/08/08 02:39:26;;;;;;;14.13;9.25;;;;;;;23.56;100.00;101127.59;5095477;28;20118;-74
2022/08/08 02:42:34;;;;;;;12.10;8.77;;;;;;;23.39;100.00;101131.31;5095323;28;20031;-74
2022/08/08 02:45:44;;;;;;;11.93;8.27;;;;;;;22.98;100.00;101132.16;5095708;28;20032;-73
2022/08/08 02:49:07;;;;;;;11.25;8.25;;;;;;;23.13;100.00;101128.53;5094811;28;20024;-74
2022/08/08 02:52:30;;;;;;;12.20;8.48;;;;;;;23.07;100.00;101135.13;5095063;28;20452;-74
2022/08/08 02:55:30;;;;;;;12.70;7.88;;;;;;;23.27;100.00;101141.97;5095027;28;20504;-74
2022/08/08 02:58:45;;;;;;;11.80;8.38;;;;;;;23.56;100.00;101142.75;5094454;28;20031;-73
2022/08/08 03:01:52;;;;;;;13.20;8.43;;;;;;;23.48;100.00;101139.72;5074520;28;20028;-73
2022/08/08 03:04:57;;;;;;;10.93;8.70;;;;;;;23.33;100.00;101141.56;5094036;28;20513;-73
2022/08/08 03:08:07;;;;;;;11.60;8.20;;;;;;;23.18;100.00;101146.03;5095149;28;20024;-73
2022/08/08 03:11:07;;;;;;;11.63;8.48;;;;;;;22.90;100.00;101140.66;5095389;28;20016;-73
2022/08/08 03:14:24;;;;;;;12.20;9.13;;;;;;;23.06;100.00;101157.47;5094940;28;20112;-72
2022/08/08 03:17:36;;;;;;;11.10;8.98;;;;;;;23.21;100.00;101158.38;5094652;28;20051;-74
2022/08/08 03:20:21;;;;;;;11.75;8.02;;;;;;;23.27;100.00;101158.84;5095037;28;20096;-74
2022/08/08 03:23:07;;;;;;;12.48;8.98;;;;;;;23.18;100.00;101156.72;5094359;28;20107;-73
2022/08/08 03:25:55;;;;;;;11.68;8.80;;;;;;;23.34;100.00;101162.84;5095201;28;20030;-74
2022/08/08 03:28:52;;;;;;;13.05;9.20;;;;;;;22.74;100.00;101165.72;5093788;28;20023;-74
2022/08/08 03:34:43;;;;;;;13.40;8.85;;;;;;;23.01;100.00;101164.06;5094376;28;20024;-74
2022/08/08 03:37:29;;;;;;;14.15;9.00;;;;;;;22.73;100.00;101167.56;5094872;28;20480;-74
2022/08/08 03:40:21;;;;;;;14.90;8.80;;;;;;;23.06;100.00;101168.16;5094328;28;20036;-74
2022/08/08 03:43:09;;;;;;;12.43;9.13;;;;;;;22.96;100.00;101163.50;5094782;28;20519;-74
2022/08/08 03:45:55;;;;;;;12.35;8.68;;;;;;;23.09;100.00;101176.00;5094479;28;20039;-74
2022/08/08 03:48:41;;;;;;;11.98;8.43;;;;;;;22.76;100.00;101172.72;5094640;28;20032;-74
2022/08/08 03:51:28;;;;;;;13.43;9.07;;;;;;;22.86;100.00;101178.34;5094207;28;20035;-74
2022/08/08 03:54:14;;;;;;;11.82;9.07;;;;;;;22.52;100.00;101176.88;5093334;28;20051;-74
2022/08/08 03:57:00;;;;;;;12.10;8.73;;;;;;;22.66;100.00;101184.03;5094320;28;20024;-74
2022/08/08 03:59:45;;;;;;;15.85;8.63;;;;;;;22.97;100.00;101184.78;5093622;28;20020;-74
2022/08/08 04:02:31;;;;;;;11.73;8.73;;;;;;;22.87;100.00;101186.28;5094175;28;20040;-74
2022/08/08 04:05:17;;;;;;;12.52;8.98;;;;;;;22.50;100.00;101181.41;5092993;28;20020;-73
2022/08/08 04:08:05;;;;;;;12.55;9.35;;;;;;;22.73;100.00;101188.94;5094161;28;20027;-73
2022/08/08 04:10:51;;;;;;;13.15;9.02;;;;;;;22.99;100.00;101182.84;5093281;28;20020;-74
2022/08/08 04:13:37;;;;;;;13.73;9.07;;;;;;;23.23;100.00;101192.06;5094333;28;20058;-74
2022/08/08 04:16:24;;;;;;;14.95;9.55;;;;;;;23.16;100.00;101196.03;5094430;28;20028;-73
2022/08/08 04:19:10;;;;;;;11.95;8.80;;;;;;;22.89;100.00;101189.72;5093609;28;20036;-74
2022/08/08 04:21:56;;;;;;;15.02;9.20;;;;;;;22.91;100.00;101195.81;5093780;28;20032;-73
2022/08/08 04:24:41;;;;;;;13.27;8.70;;;;;;;22.96;100.00;101195.56;5093353;28;20409;-74
2022/08/08 04:27:27;;;;;;;12.77;9.05;;;;;;;22.95;100.00;101191.19;5094756;28;20035;-75
2022/08/08 04:30:13;;;;;;;12.50;9.32;;;;;;;22.99;100.00;101195.38;5094538;28;20035;-74
2022/08/08 04:32:59;;;;;;;13.38;8.80;;;;;;;23.07;100.00;101201.13;5093710;28;20024;-74
2022/08/08 04:35:45;;;;;;;13.65;9.40;;;;;;;22.85;100.00;101203.34;5093814;28;20028;-73
2022/08/08 04:38:30;;;;;;;11.18;8.68;;;;;;;23.04;100.00;101204.84;5093867;28;20104;-74
2022/08/08 04:41:16;;;;;;;14.75;9.70;;;;;;;23.12;100.00;101207.03;5093282;28;20021;-74
2022/08/08 04:44:02;;;;;;;12.60;9.35;;;;;;;23.04;100.00;101204.84;5095184;28;20020;-74
2022/08/08 04:46:48;;;;;;;12.65;8.98;;;;;;;23.31;100.00;101211.19;5100408;28;20028;-74
2022/08/08 04:49:33;;;;;;;12.73;9.40;;;;;;;23.66;100.00;101216.16;5098894;28;20028;-73
2022/08/08 04:52:20;;;;;;;13.88;9.38;;;;;;;23.35;100.00;101212.72;5099619;28;20341;-74
2022/08/08 04:55:06;;;;;;;11.73;8.95;;;;;;;23.58;100.00;101221.97;5085518;28;20051;-74
2022/08/08 04:57:51;;;;;;;13.10;9.13;;;;;;;23.33;100.00;101214.63;5100097;28;20020;-74
2022/08/08 05:00:37;;;;;;;12.07;8.80;;;;;;;23.39;100.00;101227.59;5098985;28;20059;-74
2022/08/08 05:03:23;;;;;;;13.13;8.98;;;;;;;23.12;100.00;101223.91;5098077;28;20245;-74
2022/08/08 05:06:09;;;;;;;11.25;8.60;;;;;;;23.27;100.00;101219.50;5098113;28;20028;-73
2022/08/08 05:08:55;;;;;;;13.85;9.15;;;;;;;23.47;100.00;101226.28;5103509;28;20052;-73
2022/08/08 05:11:40;;;;;;;12.25;8.77;;;;;;;23.28;100.00;101235.44;5100634;28;20113;-73
2022/08/08 05:14:26;;;;;;;10.02;8.45;;;;;;;23.38;100.00;101221.50;5101498;28;20122;-74
2022/08/08 05:17:12;;;;;;;10.60;8.40;;;;;;;23.62;100.00;101222.66;5097223;28;20092;-74
2022/08/08 05:19:58;;;;;;;10.77;8.77;;;;;;;23.52;100.00;101226.84;5103269;28;20043;-73
2022/08/08 05:22:45;;;;;;;11.90;8.88;;;;;;;23.32;100.00;101236.13;5106209;28;20464;-73
2022/08/08 05:25:31;;;;;;;12.95;9.30;;;;;;;23.51;100.00;101230.47;5106133;28;20047;-73
2022/08/08 05:28:17;;;;;;;16.65;8.80;;;;;;;23.16;100.00;101235.31;5105222;28;20035;-73
2022/08/08 05:31:03;;;;;;;13.68;8.82;;;;;;;23.03;100.00;101239.69;5103622;28;20016;-73
2022/08/08 05:33:49;;;;;;;11.02;9.02;;;;;;;23.42;100.00;101239.09;5104296;28;20034;-72
2022/08/08 05:36:37;;;;;;;11.43;8.60;;;;;;;23.75;100.00;101245.84;5105652;28;20111;-70
2022/08/08 05:39:22;;;;;;;9.90;8.23;;;;;;;23.09;100.00;101244.66;5103513;28;20035;-74
2022/08/08 05:42:10;;;;;;;13.30;8.60;;;;;;;23.24;100.00;101247.25;5099001;28;20031;-73
2022/08/08 05:45:01;;;;;;;11.52;9.02;;;;;;;23.23;100.00;101250.91;5096089;28;20032;-74
2022/08/08 05:47:46;;;;;;;11.73;8.68;;;;;;;23.51;100.00;101254.56;5096311;28;20367;-73
2022/08/08 05:50:32;;;;;;;13.65;8.88;;;;;;;23.81;100.00;101250.81;5096460;28;20098;-73
2022/08/08 05:53:26;;;;;;;13.50;8.95;;;;;;;23.82;100.00;101249.00;5095227;28;20024;-73
2022/08/08 05:56:13;;;;;;;15.57;8.65;;;;;;;23.77;100.00;101249.28;5095751;28;20416;-73
2022/08/08 05:59:04;;;;;;;12.25;8.98;;;;;;;24.10;100.00;101268.56;5095492;28;20118;-74
2022/08/08 06:01:55;;;;;;;13.80;8.90;;;;;;;23.89;100.00;101259.22;5096107;28;20034;-73
2022/08/08 06:04:41;;;;;;;15.98;8.82;;;;;;;24.46;100.00;101265.31;5095874;28;20447;-74
2022/08/08 06:07:28;;;;;;;17.85;8.40;;;;;;;24.53;100.00;101266.63;5096042;28;20114;-73
2022/08/08 06:10:14;;;;;;;10.70;7.80;;;;;;;24.60;100.00;101279.53;5096062;28;20487;-73
2022/08/08 06:13:00;;;;;;;10.88;8.98;;;;;;;24.69;100.00;101278.94;5095709;28;20110;-74
2022/08/08 06:15:48;;;;;;;11.18;8.23;;;;;;;24.85;100.00;101274.28;5096137;28;20032;-73
2022/08/08 06:18:35;;;;;;;14.50;8.77;;;;;;;25.41;100.00;101283.81;5095247;28;20032;-73
2022/08/08 06:21:21;;;;;;;14.60;9.80;;;;;;;25.24;100.00;101281.41;5094764;28;20056;-74
2022/08/08 06:24:07;;;;;;;12.13;10.00;;;;;;;24.97;100.00;101278.81;5095479;28;20102;-75
2022/08/08 06:27:04;;;;;;;23.35;10.80;;;;;;;25.12;100.00;101283.09;5095140;28;20054;-74
2022/08/08 06:30:05;;;;;;;19.45;11.55;;;;;;;25.17;100.00;101275.63;5094981;28;20058;-73
2022/08/08 06:32:55;;;;;;;16.42;11.82;;;;;;;25.53;100.00;101277.59;5096460;28;20101;-74
2022/08/08 06:35:48;;;;;;;19.55;11.45;;;;;;;25.48;100.00;101285.13;5095290;28;20444;-74
2022/08/08 06:38:35;;;;;;;14.48;9.52;;;;;;;25.53;100.00;101282.97;5094912;28;20059;-74
2022/08/08 06:41:25;;;;;;;15.48;10.13;;;;;;;25.53;100.00;101282.97;5095199;28;20028;-74
2022/08/08 06:44:15;;;;;;;17.33;9.68;;;;;;;25.83;100.00;101292.38;5095459;28;20032;-74
2022/08/08 06:47:01;;;;;;;8.98;7.68;;;;;;;25.33;100.00;101288.84;5095056;28;20028;-74
2022/08/08 06:49:48;;;;;;;10.02;7.35;;;;;;;25.88;100.00;101284.00;5095045;28;20027;-75
2022/08/08 06:52:34;;;;;;;10.75;7.30;;;;;;;25.99;100.00;101284.09;5094927;28;20520;-74
2022/08/08 06:55:20;;;;;;;12.88;7.93;;;;;;;25.78;100.00;101289.19;5094297;28;20048;-75
2022/08/08 06:58:06;;;;;;;14.50;7.70;;;;;;;26.14;100.00;101286.56;5095155;28;20032;-74
2022/08/08 07:00:52;;;;;;;9.52;7.60;;;;;;;26.19;100.00;101289.75;5094986;28;20063;-75
2022/08/08 07:03:53;;;;;;;10.13;7.72;;;;;;;26.47;100.00;101288.56;5094856;28;20056;-75
2022/08/08 07:06:49;;;;;;;12.27;7.65;;;;;;;26.26;100.00;101287.47;5093698;28;20048;-74
2022/08/08 07:09:47;;;;;;;11.85;6.75;;;;;;;26.13;100.00;101283.97;5094043;28;20112;-75
2022/08/08 07:12:58;;;;;;;12.73;8.43;;;;;;;26.48;100.00;101275.03;5094635;28;20034;-74
2022/08/08 07:15:54;;;;;;;11.15;7.68;;;;;;;26.50;100.00;101280.28;5093938;28;20024;-75
2022/08/08 07:18:55;;;;;;;10.27;7.97;;;;;;;26.16;100.00;101283.75;5095261;28;20119;-74
2022/08/08 07:22:05;;;;;;;12.85;8.55;;;;;;;26.08;100.00;101270.03;5094587;28;20078;-74
2022/08/08 07:25:01;;;;;;;10.63;8.10;;;;;;;26.60;100.00;101265.25;5094277;28;20089;-74
2022/08/08 07:27:54;;;;;;;9.43;7.45;;;;;;;26.69;100.00;101267.22;5093902;28;20027;-74
2022/08/08 07:30:42;;;;;;;13.50;7.47;;;;;;;26.92;100.00;101259.13;5095089;28;20105;-74
2022/08/08 07:33:28;;;;;;;7.95;7.03;;;;;;;26.91;100.00;101272.69;5094511;28;20056;-74
2022/08/08 07:36:15;;;;;;;10.27;7.20;;;;;;;26.51;100.00;101269.44;5094891;28;20024;-74
2022/08/08 07:39:01;;;;;;;16.00;7.68;;;;;;;27.24;100.00;101264.72;5094877;28;20448;-75
2022/08/08 07:41:49;;;;;;;9.60;6.90;;;;;;;27.52;100.00;101271.53;5094025;28;20024;-74
2022/08/08 07:44:35;;;;;;;10.35;7.22;;;;;;;27.79;100.00;101272.88;5093453;28;20028;-74
2022/08/08 07:47:21;;;;;;;11.88;10.40;;;;;;;28.50;100.00;101272.44;5093901;28;20329;-74
2022/08/08 07:50:07;;;;;;;13.70;7.28;;;;;;;28.66;100.00;101278.28;5095189;28;20024;-74
2022/08/08 07:53:03;;;;;;;8.32;6.68;;;;;;;28.65;100.00;101271.19;5093714;28;20039;-74
2022/08/08 07:55:54;;;;;;;9.55;6.22;;;;;;;28.59;100.00;101267.16;5093932;28;20537;-74
2022/08/08 07:58:42;;;;;;;7.53;6.38;;;;;;;28.53;100.00;101274.91;5079686;28;20040;-74
2022/08/08 08:01:32;;;;;;;9.65;6.18;;;;;;;28.86;100.00;101270.25;5093460;28;20081;-75
2022/08/08 08:04:28;;;;;;;8.02;5.93;;;;;;;29.28;100.00;101273.81;5094182;28;20456;-74
2022/08/08 08:07:15;;;;;;;11.00;6.38;;;;;;;29.45;100.00;101270.53;5094697;28;20062;-74
2022/08/08 08:10:03;;;;;;;10.38;7.93;;;;;;;29.73;100.00;101276.09;5093428;28;20321;-74
2022/08/08 08:13:19;;;;;;;11.77;8.05;;;;;;;29.97;100.00;101275.78;5093389;28;20103;-74
2022/08/08 08:16:08;;;;;;;7.82;6.28;;;;;;;29.76;100.00;101278.53;5093331;28;20027;-75
2022/08/08 08:19:04;;;;;;;8.30;5.57;;;;;;;30.31;99.55;101271.78;5095035;28;20028;-74
2022/08/08 08:21:50;;;;;;;7.38;5.75;;;;;;;30.49;96.96;101270.94;5098544;28;20035;-74
2022/08/08 08:24:35;;;;;;;7.82;6.38;;;;;;;30.75;95.76;101266.75;5097846;28;20027;-74
2022/08/08 08:27:21;;;;;;;7.03;5.95;;;;;;;30.34;95.98;101275.03;5097987;28;20043;-74
2022/08/08 08:30:07;;;;;;;8.45;6.13;;;;;;;29.98;98.76;101278.31;5098252;28;20031;-75
2022/08/08 08:32:53;;;;;;;7.22;6.22;;;;;;;30.34;98.86;101272.34;5097796;28;20024;-75
2022/08/08 08:35:39;;;;;;;8.25;5.53;;;;;;;30.91;91.59;101267.00;5097081;28;20363;-74
2022/08/08 08:38:25;;;;;;;8.90;6.93;;;;;;;31.10;91.76;101271.56;5097429;28;20085;-73
2022/08/08 08:41:11;;;;;;;8.40;5.80;;;;;;;31.62;88.14;101260.19;5097478;28;20024;-75
2022/08/08 08:43:58;;;;;;;8.73;5.78;;;;;;;32.03;82.82;101261.59;5097393;28;20039;-75
2022/08/08 08:46:44;;;;;;;10.20;5.68;;;;;;;31.42;84.34;101259.38;5096754;28;20077;-75
2022/08/08 08:49:30;;;;;;;8.88;5.90;;;;;;;31.33;87.63;101257.56;5097431;28;20047;-74
2022/08/08 08:52:16;;;;;;;9.32;5.13;;;;;;;31.52;86.75;101261.22;5097566;28;20032;-75
2022/08/08 08:55:03;;;;;;;8.00;5.43;;;;;;;31.37;85.80;101255.41;5096658;28;20392;-74
2022/08/08 08:57:54;;;;;;;6.05;5.45;;;;;;;31.63;84.24;101258.31;5098321;28;20185;-74
2022/08/08 09:00:40;;;;;;;8.27;5.60;;;;;;;31.97;83.79;101249.50;5097644;28;20110;-75
2022/08/08 09:03:26;;;;;;;10.25;5.47;;;;;;;31.81;82.28;101251.16;5097125;28;20034;-75
2022/08/08 09:06:18;;;;;;;6.65;5.20;;;;;;;31.64;84.64;101244.63;5097070;28;20452;-73
2022/08/08 09:09:09;;;;;;;11.93;5.50;;;;;;;32.10;81.00;101246.44;5097677;28;20054;-75
2022/08/08 09:11:57;;;;;;;8.35;5.50;;;;;;;32.78;78.09;101248.56;5096616;28;20012;-75
2022/08/08 09:14:44;;;;;;;7.55;5.10;;;;;;;32.64;77.89;101249.09;5097711;28;20469;-75
2022/08/08 09:17:30;;;;;;;12.20;5.55;;;;;;;32.20;77.36;101239.09;5082855;28;20035;-75
2022/08/08 09:20:18;;;;;;;8.70;5.68;;;;;;;32.28;77.48;101234.63;5097843;28;20385;-75
2022/08/08 09:23:05;;;;;;;9.32;6.05;;;;;;;32.31;76.80;101234.34;5095691;28;20101;-74
2022/08/08 09:25:58;;;;;;;6.18;5.35;;;;;;;32.54;75.63;101235.59;5096443;28;20028;-75
2022/08/08 09:28:44;;;;;;;8.18;5.68;;;;;;;32.58;72.98;101225.28;5096546;28;20032;-75
2022/08/08 09:31:58;;;;;;;8.77;5.50;;;;;;;32.35;76.16;101219.47;5095351;28;20110;-75
2022/08/08 09:34:52;;;;;;;8.02;5.10;;;;;;;32.07;77.65;101219.63;5096532;28;20024;-75
2022/08/08 09:37:44;;;;;;;7.82;5.13;;;;;;;31.89;78.73;101219.56;5097253;28;20020;-74
2022/08/08 09:40:33;;;;;;;24.63;22.17;;;;;;;31.48;82.32;101211.03;5095728;28;20046;-75
2022/08/08 09:43:32;;;;;;;7.57;5.03;;;;;;;31.65;81.83;101208.41;5097026;28;20399;-75
2022/08/08 09:46:20;;;;;;;7.05;5.22;;;;;;;32.18;77.84;101208.56;5096019;28;20031;-75
2022/08/08 09:49:07;;;;;;;7.53;4.95;;;;;;;31.89;80.29;101202.47;5095690;28;20038;-75
2022/08/08 09:51:55;;;;;;;6.32;5.28;;;;;;;32.25;80.40;101202.38;5095647;28;20031;-75
2022/08/08 09:54:43;;;;;;;8.20;5.50;;;;;;;32.48;76.50;101195.53;5095466;28;20048;-75
2022/08/08 09:57:37;;;;;;;5.85;5.25;;;;;;;32.22;78.10;101199.13;5096603;28;20032;-75
2022/08/08 10:00:24;;;;;;;8.63;5.82;;;;;;;32.47;77.17;101190.25;5095902;28;20020;-75
2022/08/08 10:03:13;;;;;;;7.80;5.75;;;;;;;32.48;77.07;101181.94;5095480;28;20065;-74
2022/08/08 10:05:59;;;;;;;7.85;5.30;;;;;;;32.35;77.28;101186.91;5096093;28;20027;-75
2022/08/08 10:08:47;;;;;;;6.32;4.88;;;;;;;31.82;79.75;101187.81;5096546;28;20043;-75
2022/08/08 10:11:34;;;;;;;10.63;5.30;;;;;;;32.02;80.30;101178.56;5096025;28;20016;-76
2022/08/08 10:14:19;;;;;;;13.52;5.40;;;;;;;32.63;75.53;101179.53;5096117;28;20024;-75
2022/08/08 10:17:08;;;;;;;10.13;5.07;;;;;;;32.01;79.57;101174.16;5095739;28;20444;-75
2022/08/08 10:20:00;;;;;;;11.55;6.05;;;;;;;32.32;76.10;101170.09;5095966;28;20386;-75
2022/08/08 10:22:56;;;;;;;8.70;5.85;;;;;;;32.08;75.59;101175.22;5095261;28;20060;-75
2022/08/08 10:25:43;;;;;;;29.10;23.55;;;;;;;32.85;74.32;101166.34;5095203;28;20020;-75
2022/08/08 10:28:36;;;;;;;9.63;5.45;;;;;;;32.55;72.66;101163.19;5095289;28;20368;-75
2022/08/08 10:34:42;;;;;;;10.38;5.03;;;;;;;32.83;72.27;101143.91;5095461;28;20111;-75
2022/08/08 10:37:30;;;;;;;6.13;4.95;;;;;;;32.67;71.43;101138.38;5096451;28;20398;-74
2022/08/08 10:40:17;;;;;;;6.63;4.97;;;;;;;32.80;70.41;101143.34;5095265;28;20368;-76
2022/08/08 10:43:06;;;;;;;8.65;5.43;;;;;;;32.88;70.52;101132.59;5095550;28;20055;-75
2022/08/08 10:45:52;;;;;;;6.95;5.05;;;;;;;33.23;68.57;101136.03;5095283;28;20096;-75
2022/08/08 10:48:38;;;;;;;11.38;5.65;;;;;;;32.78;69.54;101129.94;5095665;28;20415;-75
2022/08/08 10:51:29;;;;;;;9.20;5.30;;;;;;;33.45;65.94;101131.91;5095556;28;20028;-75
2022/08/08 10:54:22;;;;;;;11.40;5.05;;;;;;;32.98;66.55;101117.06;5094781;28;20043;-75
2022/08/08 10:57:07;;;;;;;6.18;5.13;;;;;;;33.43;65.59;101121.19;5095549;28;20385;-75
2022/08/08 10:59:56;;;;;;;6.05;5.28;;;;;;;33.55;62.28;101113.63;5094268;28;20105;-75
2022/08/08 11:02:41;;;;;;;20.98;12.02;;;;;;;33.38;64.44;101100.97;5094560;28;20027;-75
2022/08/08 11:05:27;;;;;;;7.70;5.68;;;;;;;33.84;63.55;101108.66;5093991;28;20039;-75
2022/08/08 11:08:22;;;;;;;6.82;5.25;;;;;;;34.17;60.89;101103.09;5094578;28;20036;-75
2022/08/08 11:11:11;;;;;;;10.45;5.50;;;;;;;33.77;61.31;101113.00;5094532;28;20020;-75
2022/08/08 11:14:01;;;;;;;12.02;5.15;;;;;;;33.42;63.12;101115.94;5095450;28;20020;-75
2022/08/08 11:16:48;;;;;;;11.07;5.35;;;;;;;33.11;63.56;101112.03;5094094;28;20035;-75
2022/08/08 11:19:35;;;;;;;8.63;5.75;;;;;;;33.31;61.69;101106.19;5094134;28;20459;-74
2022/08/08 11:22:25;;;;;;;6.07;5.00;;;;;;;33.43;60.77;101101.34;5093907;28;20028;-75
2022/08/08 11:25:12;;;;;;;12.00;6.78;;;;;;;33.90;57.76;101103.38;5095600;28;20395;-76
2022/08/08 11:28:00;;;;;;;7.82;5.22;;;;;;;33.71;57.27;101102.81;5094666;28;20020;-75
2022/08/08 11:30:47;;;;;;;11.13;4.88;;;;;;;33.54;58.00;101103.75;5094617;28;20024;-75
2022/08/08 11:33:35;;;;;;;7.65;5.38;;;;;;;33.76;56.72;101098.56;5094623;28;20036;-75
2022/08/08 11:36:21;;;;;;;11.27;5.32;;;;;;;33.92;56.73;101085.06;5094756;28;20066;-76
2022/08/08 11:39:10;;;;;;;8.85;5.00;;;;;;;34.31;54.98;101085.28;5094262;28;20024;-75
2022/08/08 11:41:57;;;;;;;7.20;4.95;;;;;;;34.03;57.37;101079.25;5094523;28;20436;-75
2022/08/08 11:44:44;;;;;;;11.55;5.57;;;;;;;34.77;55.21;101081.81;5094581;28;20028;-76
2022/08/08 11:47:30;;;;;;;11.13;4.78;;;;;;;34.35;55.06;101075.75;5094225;28;20030;-75
2022/08/08 11:50:20;;;;;;;5.65;4.97;;;;;;;34.86;54.33;101067.19;5094931;28;20020;-75
2022/08/08 11:53:08;;;;;;;8.93;5.78;;;;;;;34.93;54.82;101060.88;5093433;28;20376;-75
2022/08/08 11:55:54;;;;;;;8.18;5.22;;;;;;;34.90;53.04;101071.25;5095068;28;20110;-75
2022/08/08 11:58:41;;;;;;;12.82;5.65;;;;;;;35.32;52.62;101071.84;5094059;28;20047;-75
2022/08/08 12:01:32;;;;;;;5.72;4.57;;;;;;;35.20;50.83;101062.31;5093554;28;20031;-75
2022/08/08 12:04:18;;;;;;;6.38;4.85;;;;;;;35.39;50.64;101058.34;5093359;28;20063;-76
2022/08/08 12:07:05;;;;;;;9.05;5.05;;;;;;;35.77;50.72;101052.00;5094274;28;20095;-76
2022/08/08 12:09:53;;;;;;;10.85;4.80;;;;;;;35.16;50.51;101050.91;5093590;28;20398;-76
2022/08/08 12:12:46;;;;;;;6.65;4.78;;;;;;;35.70;49.42;101057.28;5093906;28;20028;-75
2022/08/08 12:15:36;;;;;;;7.97;5.07;;;;;;;34.97;50.34;101055.91;5093555;28;20096;-76
2022/08/08 12:18:25;;;;;;;9.68;4.97;;;;;;;35.15;49.69;101059.25;5094124;28;20031;-75
2022/08/08 12:21:30;;;;;;;8.48;4.78;;;;;;;35.21;46.96;101047.66;5094406;28;20073;-75
2022/08/08 12:24:18;;;;;;;13.73;7.65;;;;;;;35.11;44.61;101039.69;5094143;28;20113;-75
2022/08/08 12:27:15;;;;;;;8.07;4.70;;;;;;;34.32;47.07;101048.88;5094317;28;20035;-75
2022/08/08 12:30:01;;;;;;;8.52;5.70;;;;;;;34.33;48.89;101036.97;5094375;28;20097;-75
2022/08/08 12:32:48;;;;;;;8.80;5.25;;;;;;;34.97;49.17;101039.56;5094127;28;20103;-75
2022/08/08 12:35:39;;;;;;;10.00;4.85;;;;;;;34.76;48.73;101033.84;5094180;28;20032;-75
2022/08/08 12:38:25;;;;;;;7.22;4.45;;;;;;;35.04;47.04;101033.25;5093769;28;20035;-74
2022/08/08 12:41:11;;;;;;;7.93;5.15;;;;;;;35.31;46.84;101029.22;5093469;28;20089;-75
2022/08/08 12:44:05;;;;;;;6.43;4.70;;;;;;;35.35;47.17;101024.28;5093141;28;20031;-75
2022/08/08 12:46:55;;;;;;;7.35;4.30;;;;;;;35.25;46.26;101033.47;5093014;28;20035;-75
2022/08/08 12:49:44;;;;;;;11.25;4.28;;;;;;;35.23;45.73;101027.38;5093631;28;20032;-75
2022/08/08 12:52:33;;;;;;;6.75;5.00;;;;;;;35.80;44.97;101022.50;5093734;28;20137;-75
2022/08/08 12:55:19;;;;;;;4.95;4.22;;;;;;;35.57;44.73;101023.47;5092680;28;20063;-75
2022/08/08 12:58:09;;;;;;;6.88;4.38;;;;;;;35.93;44.28;101020.00;5093341;28;20038;-75
2022/08/08 13:01:07;;;;;;;10.40;4.63;;;;;;;35.72;44.73;101017.06;5093595;28;20036;-75
2022/08/08 13:03:52;;;;;;;7.40;4.13;;;;;;;35.45;44.75;101016.72;5093284;28;20024;-75
2022/08/08 13:06:38;;;;;;;11.88;5.63;;;;;;;35.61;45.04;101016.63;5096513;28;20107;-76
2022/08/08 13:09:33;;;;;;;8.93;4.53;;;;;;;35.42;43.49;101008.91;5097588;28;20020;-75
2022/08/08 13:12:35;;;;;;;5.60;4.30;;;;;;;35.56;43.53;101003.56;5097377;28;20471;-75
2022/08/08 13:15:21;;;;;;;8.70;4.50;;;;;;;35.50;43.42;101000.66;5096502;28;20028;-75
2022/08/08 13:18:07;;;;;;;8.27;4.65;;;;;;;35.60;43.89;100996.72;5097059;28;20031;-75